createdAt,value
2019-04-14T00:01:28.307Z,10.60
2019-04-14T00:04:29.440Z,9.13
2019-04-14T00:06:59.412Z,9.17
2019-04-14T00:09:29.456Z,9.00
2019-04-14T00:11:59.380Z,9.20
2019-04-14T00:14:29.392Z,11.07
2019-04-14T00:16:59.661Z,9.30
2019-04-14T00:19:30.629Z,9.17
2019-04-14T00:22:03.083Z,10.83
2019-04-14T00:24:33.535Z,11.47
2019-04-14T00:27:04.238Z,10.07
2019-04-14T00:29:35.054Z,10.60
2019-04-14T00:32:05.380Z,8.80
2019-04-14T00:34:53.116Z,9.07
2019-04-14T00:37:31.837Z,7.67
2019-04-14T00:40:08.302Z,8.03
2019-04-14T00:43:13.418Z,11.60
2019-04-14T00:45:57.668Z,9.73
2019-04-14T00:48:27.687Z,8.10
2019-04-14T00:50:58.114Z,11.67
2019-04-14T00:53:28.032Z,9.53
2019-04-14T00:55:58.018Z,9.03
2019-04-14T00:58:27.952Z,11.27
2019-04-14T01:00:58.004Z,11.97
2019-04-14T01:03:28.711Z,8.17
2019-04-14T01:05:59.048Z,10.60
2019-04-14T01:08:29.240Z,11.50
2019-04-14T01:10:59.318Z,9.77
2019-04-14T01:13:29.161Z,8.17
2019-04-14T01:16:07.278Z,8.73
2019-04-14T01:18:31.825Z,8.73
2019-04-14T01:21:02.511Z,9.83
2019-04-14T01:23:32.657Z,11.03
2019-04-14T01:26:02.952Z,10.43
2019-04-14T01:28:32.986Z,9.30
2019-04-14T01:31:03.365Z,11.50
2019-04-14T01:33:33.685Z,9.03
2019-04-14T01:36:03.960Z,10.53
2019-04-14T01:38:34.370Z,10.93
2019-04-14T01:41:04.287Z,11.67
2019-04-14T01:43:34.745Z,9.50
2019-04-14T01:46:13.486Z,9.87
2019-04-14T01:48:36.695Z,9.53
2019-04-14T01:51:24.539Z,10.17
2019-04-14T01:54:12.742Z,10.40
2019-04-14T01:57:02.501Z,10.93
2019-04-14T01:59:32.670Z,10.17
2019-04-14T02:02:03.534Z,10.63
2019-04-14T02:04:33.416Z,10.03
2019-04-14T02:07:03.845Z,9.40
2019-04-14T02:09:33.654Z,10.30
2019-04-14T02:12:03.854Z,9.93
2019-04-14T02:14:34.435Z,11.00
2019-04-14T02:17:05.951Z,11.50
2019-04-14T02:19:37.059Z,11.30
2019-04-14T02:22:07.340Z,10.77
2019-04-14T02:24:37.534Z,10.37
2019-04-14T02:27:07.772Z,8.73
2019-04-14T02:29:38.360Z,9.97
2019-04-14T02:32:32.837Z,12.60
2019-04-14T02:40:08.206Z,10.03
2019-04-14T02:42:54.249Z,9.83
2019-04-14T02:45:19.519Z,11.20
2019-04-14T02:50:17.985Z,11.20
2019-04-14T02:52:58.573Z,9.90
2019-04-14T02:55:18.939Z,12.13
2019-04-14T02:57:52.103Z,10.13
2019-04-14T03:00:31.753Z,9.43
2019-04-14T03:03:03.458Z,10.10
2019-04-14T03:05:27.228Z,9.50
2019-04-14T03:08:02.458Z,10.63
2019-04-14T03:10:31.881Z,8.97
2019-04-14T03:13:08.203Z,9.63
2019-04-14T03:15:43.614Z,9.23
2019-04-14T03:21:13.679Z,13.03
2019-04-14T03:23:55.704Z,10.07
2019-04-14T03:26:24.998Z,9.93
2019-04-14T03:28:56.440Z,8.90
2019-04-14T03:32:04.651Z,8.87
2019-04-14T03:37:27.250Z,8.80
2019-04-14T03:39:10.663Z,8.63
2019-04-14T03:41:41.329Z,11.00
2019-04-14T03:44:09.805Z,12.40
2019-04-14T03:46:43.342Z,8.30
2019-04-14T03:49:19.770Z,11.40
2019-04-14T03:54:08.412Z,8.73
2019-04-14T03:56:53.617Z,10.07
2019-04-14T03:59:24.014Z,11.40
2019-04-14T04:01:54.685Z,9.20
2019-04-14T04:04:25.027Z,8.10
2019-04-14T04:06:55.365Z,9.73
2019-04-14T04:09:36.425Z,11.33
2019-04-14T04:12:07.384Z,9.23
2019-04-14T04:14:37.847Z,9.93
2019-04-14T04:17:34.043Z,8.97
2019-04-14T04:20:19.314Z,13.83
2019-04-14T04:23:18.388Z,9.40
2019-04-14T04:25:53.526Z,7.00
2019-04-14T04:28:29.892Z,9.03
2019-04-14T04:31:17.781Z,8.77
2019-04-14T04:34:03.363Z,8.70
2019-04-14T04:36:46.633Z,10.30
2019-04-14T04:39:28.453Z,10.43
2019-04-14T04:41:58.410Z,9.33
2019-04-14T04:44:29.096Z,9.57
2019-04-14T04:46:59.171Z,9.43
2019-04-14T04:49:30.565Z,7.90
2019-04-14T04:52:04.105Z,8.63
2019-04-14T04:54:34.220Z,8.47
2019-04-14T04:57:04.596Z,8.33
2019-04-14T04:59:34.388Z,9.97
2019-04-14T05:02:04.745Z,8.63
2019-04-14T05:04:35.135Z,8.07
2019-04-14T05:07:05.620Z,8.03
2019-04-14T05:09:57.776Z,8.80
2019-04-14T05:12:58.623Z,9.90
2019-04-14T05:15:42.376Z,7.80
2019-04-14T05:18:20.000Z,8.47
2019-04-14T05:20:50.989Z,7.80
2019-04-14T05:23:21.342Z,8.90
2019-04-14T05:25:51.722Z,7.90
2019-04-14T05:28:22.083Z,8.20
2019-04-14T05:30:52.587Z,8.23
2019-04-14T05:33:22.862Z,9.87
2019-04-14T05:35:53.244Z,7.93
2019-04-14T05:38:23.624Z,9.20
2019-04-14T05:40:54.019Z,8.13
2019-04-14T05:43:36.723Z,8.60
2019-04-14T05:45:55.053Z,9.40
2019-04-14T05:48:25.132Z,9.63
2019-04-14T05:50:56.240Z,9.13
2019-04-14T05:53:26.664Z,9.30
2019-04-14T05:55:56.786Z,10.90
2019-04-14T05:58:27.535Z,8.30
2019-04-14T06:00:57.975Z,10.13
2019-04-14T06:03:27.866Z,7.70
2019-04-14T06:05:58.822Z,9.77
2019-04-14T06:08:33.454Z,10.03
2019-04-14T06:11:03.037Z,8.13
2019-04-14T06:13:32.598Z,9.70
2019-04-14T06:16:02.273Z,7.43
2019-04-14T06:18:32.617Z,7.30
2019-04-14T06:21:02.318Z,7.27
2019-04-14T06:23:32.137Z,9.60
2019-04-14T06:26:01.804Z,8.10
2019-04-14T06:28:31.483Z,7.13
2019-04-14T06:31:19.111Z,7.67
2019-04-14T06:34:18.121Z,8.10
2019-04-14T06:37:09.174Z,6.80
2019-04-14T06:39:42.351Z,7.60
2019-04-14T06:42:12.087Z,7.13
2019-04-14T06:44:46.320Z,7.63
2019-04-14T06:47:18.509Z,7.70
2019-04-14T06:49:49.102Z,10.20
2019-04-14T06:52:19.322Z,6.80
2019-04-14T06:54:48.951Z,7.30
2019-04-14T06:57:22.165Z,6.17
2019-04-14T06:59:51.816Z,8.30
2019-04-14T07:02:21.463Z,8.17
2019-04-14T07:04:55.497Z,8.07
2019-04-14T07:07:33.181Z,8.63
2019-04-14T07:10:02.997Z,7.47
2019-04-14T07:12:32.764Z,7.00
2019-04-14T07:15:02.407Z,7.00
2019-04-14T07:17:31.952Z,7.57
2019-04-14T07:20:02.593Z,5.90
2019-04-14T07:22:32.810Z,8.17
2019-04-14T07:25:02.838Z,8.07
2019-04-14T07:27:33.253Z,5.50
2019-04-14T07:30:17.714Z,7.17
2019-04-14T07:32:55.189Z,5.90
2019-04-14T07:35:47.132Z,6.33
2019-04-14T07:38:32.371Z,6.77
2019-04-14T07:41:19.908Z,6.57
2019-04-14T07:44:15.219Z,6.40
2019-04-14T07:47:00.762Z,5.53
2019-04-14T07:49:58.869Z,8.57
2019-04-14T07:52:40.102Z,6.83
2019-04-14T07:55:18.610Z,5.70
2019-04-14T07:58:05.111Z,6.50
2019-04-14T08:00:38.610Z,7.30
2019-04-14T08:03:14.176Z,6.70
2019-04-14T08:05:43.883Z,6.10
2019-04-14T08:08:15.811Z,5.50
2019-04-14T08:10:45.460Z,6.53
2019-04-14T08:13:15.141Z,5.57
2019-04-14T08:15:44.925Z,8.80
2019-04-14T08:18:14.888Z,6.90
2019-04-14T08:20:44.780Z,8.90
2019-04-14T08:23:16.360Z,6.30
2019-04-14T08:25:46.881Z,6.83
2019-04-14T08:28:18.131Z,7.83
2019-04-14T08:30:48.416Z,8.73
2019-04-14T08:33:18.920Z,8.23
2019-04-14T08:35:49.162Z,5.07
2019-04-14T08:38:20.565Z,6.43
2019-04-14T08:40:50.232Z,6.53
2019-04-14T08:43:26.723Z,6.17
2019-04-14T08:46:17.857Z,7.00
2019-04-14T08:49:09.623Z,6.90
2019-04-14T08:52:03.794Z,6.53
2019-04-14T08:54:58.345Z,6.20
2019-04-14T08:57:40.990Z,5.93
2019-04-14T09:00:38.789Z,8.27
2019-04-14T09:03:37.317Z,7.80
2019-04-14T09:06:21.322Z,9.33
2019-04-14T09:08:58.320Z,8.23
2019-04-14T09:11:34.300Z,9.23
2019-04-14T09:14:04.373Z,6.60
2019-04-14T09:16:34.323Z,8.93
2019-04-14T09:19:07.738Z,9.50
2019-04-14T09:21:38.240Z,6.63
2019-04-14T09:24:08.197Z,6.93
2019-04-14T09:26:38.206Z,7.13
2019-04-14T09:29:07.966Z,6.63
2019-04-14T09:31:37.835Z,8.73
2019-04-14T09:34:09.427Z,8.07
2019-04-14T09:36:39.464Z,7.53
2019-04-14T09:39:09.558Z,6.40
2019-04-14T09:41:39.604Z,9.83
2019-04-14T09:44:09.962Z,7.90
2019-04-14T09:46:40.539Z,10.00
2019-04-14T09:49:10.456Z,7.27
2019-04-14T09:51:40.597Z,6.13
2019-04-14T09:54:11.637Z,7.40
2019-04-14T09:56:42.138Z,6.13
2019-04-14T09:59:12.400Z,6.03
2019-04-14T10:01:42.971Z,6.40
2019-04-14T10:04:13.592Z,6.70
2019-04-14T10:06:43.634Z,6.73
2019-04-14T10:09:14.452Z,8.23
2019-04-14T10:11:48.796Z,7.17
2019-04-14T10:14:16.715Z,6.60
2019-04-14T10:16:46.695Z,6.20
2019-04-14T10:19:17.061Z,5.57
2019-04-14T10:21:47.237Z,8.10
2019-04-14T10:24:17.268Z,6.70
2019-04-14T10:26:47.524Z,7.10
2019-04-14T10:29:17.541Z,8.67
2019-04-14T10:31:47.744Z,7.17
2019-04-14T10:34:17.775Z,7.90
2019-04-14T10:36:47.574Z,9.17
2019-04-14T10:39:17.792Z,9.47
2019-04-14T10:41:47.808Z,8.87
2019-04-14T10:44:17.789Z,7.90
2019-04-14T10:46:47.830Z,8.97
2019-04-14T10:49:18.631Z,8.33
2019-04-14T10:51:48.850Z,9.40
2019-04-14T10:54:18.653Z,11.00
2019-04-14T10:56:48.824Z,10.30
2019-04-14T10:59:18.868Z,8.80
2019-04-14T11:01:49.256Z,8.83
2019-04-14T11:04:20.897Z,7.60
2019-04-14T11:06:57.060Z,8.47
2019-04-14T11:09:27.416Z,13.63
2019-04-14T11:11:57.741Z,7.97
2019-04-14T11:14:27.461Z,5.80
2019-04-14T11:16:58.056Z,9.17
2019-04-14T11:19:27.805Z,8.03
2019-04-14T11:21:57.574Z,9.07
2019-04-14T11:24:27.295Z,7.10
2019-04-14T11:26:56.983Z,8.13
2019-04-14T11:29:29.293Z,8.53
2019-04-14T11:32:24.357Z,6.60
2019-04-14T11:35:09.064Z,7.33
2019-04-14T11:38:02.617Z,6.90
2019-04-14T11:40:37.278Z,8.33
2019-04-14T11:43:07.267Z,6.80
2019-04-14T11:45:37.257Z,7.57
2019-04-14T11:48:07.130Z,6.53
2019-04-14T11:50:38.218Z,7.30
2019-04-14T11:53:07.888Z,8.47
2019-04-14T11:55:37.645Z,6.80
2019-04-14T11:58:07.509Z,6.97
2019-04-14T12:00:52.521Z,6.70
2019-04-14T12:03:32.475Z,6.70
2019-04-14T12:06:20.648Z,6.00
2019-04-14T12:08:59.153Z,6.60
2019-04-14T12:11:29.295Z,6.83
2019-04-14T12:13:59.333Z,6.53
2019-04-14T12:16:30.432Z,6.20
2019-04-14T12:19:01.304Z,6.10
2019-04-14T12:21:31.773Z,7.60
2019-04-14T12:24:01.865Z,9.20
2019-04-14T12:26:31.867Z,6.50
2019-04-14T12:29:03.565Z,5.97
2019-04-14T12:31:35.301Z,8.80
2019-04-14T12:34:05.396Z,6.57
2019-04-14T12:36:35.400Z,6.27
2019-04-14T12:39:11.491Z,7.07
2019-04-14T12:41:46.902Z,7.07
2019-04-14T12:44:34.488Z,7.03
2019-04-14T12:47:12.004Z,6.33
2019-04-14T12:49:44.277Z,6.63
2019-04-14T12:52:21.561Z,6.93
2019-04-14T12:54:50.524Z,7.37
2019-04-14T12:57:40.258Z,8.07
2019-04-14T13:00:18.564Z,8.77
2019-04-14T13:02:49.980Z,7.30
2019-04-14T13:05:20.070Z,8.07
2019-04-14T13:07:50.580Z,7.17
2019-04-14T13:10:20.579Z,7.33
2019-04-14T13:12:51.409Z,7.80
2019-04-14T13:15:21.621Z,7.77
2019-04-14T13:17:51.620Z,8.40
2019-04-14T13:20:21.648Z,8.53
2019-04-14T13:22:51.453Z,7.17
2019-04-14T13:25:21.472Z,7.77
2019-04-14T13:27:51.744Z,8.50
2019-04-14T13:30:29.625Z,7.17
2019-04-14T13:33:00.073Z,7.90
2019-04-14T13:35:30.819Z,8.33
2019-04-14T13:38:01.828Z,8.73
2019-04-14T13:40:31.888Z,8.40
2019-04-14T13:43:02.293Z,7.20
2019-04-14T13:45:34.154Z,8.63
2019-04-14T13:48:04.596Z,9.37
2019-04-14T13:50:34.803Z,8.27
2019-04-14T13:53:04.657Z,7.80
2019-04-14T13:55:34.745Z,9.63
2019-04-14T13:58:04.808Z,7.60
2019-04-14T14:00:34.872Z,8.60
2019-04-14T14:03:04.865Z,9.20
2019-04-14T14:05:35.858Z,8.03
2019-04-14T14:08:05.907Z,8.03
2019-04-14T14:10:36.280Z,11.17
2019-04-14T14:13:17.974Z,8.70
2019-04-14T14:16:00.176Z,8.50
2019-04-14T14:18:37.381Z,9.73
2019-04-14T14:21:29.313Z,9.57
2019-04-14T14:24:18.640Z,8.60
2019-04-14T14:26:49.907Z,9.53
2019-04-14T14:29:19.773Z,7.53
2019-04-14T14:31:50.395Z,11.50
2019-04-14T14:34:20.273Z,9.40
2019-04-14T14:36:51.950Z,10.00
2019-04-14T14:39:21.836Z,9.90
2019-04-14T14:41:51.796Z,10.70
2019-04-14T14:44:23.277Z,9.90
2019-04-14T14:46:59.013Z,11.40
2019-04-14T14:49:46.692Z,10.77
2019-04-14T14:52:18.326Z,8.20
2019-04-14T14:54:48.025Z,10.03
2019-04-14T14:57:18.045Z,8.43
2019-04-14T14:59:47.963Z,9.90
2019-04-14T15:02:17.784Z,11.40
2019-04-14T15:04:47.702Z,9.80
2019-04-14T15:07:17.516Z,10.43
2019-04-14T15:09:47.577Z,9.60
2019-04-14T15:12:18.260Z,11.00
2019-04-14T15:14:48.949Z,8.47
2019-04-14T15:17:19.209Z,10.47
2019-04-14T15:19:49.065Z,9.73
2019-04-14T15:22:19.127Z,9.10
2019-04-14T15:24:48.869Z,10.53
2019-04-14T15:27:18.775Z,9.83
2019-04-14T15:29:48.549Z,10.87
2019-04-14T15:32:18.285Z,10.60
2019-04-14T15:34:48.330Z,12.70
2019-04-14T15:37:18.180Z,12.50
2019-04-14T15:39:47.901Z,15.33
2019-04-14T15:42:17.602Z,12.40
2019-04-14T15:44:47.565Z,11.50
2019-04-14T15:47:17.316Z,9.10
2019-04-14T15:49:47.286Z,8.70
2019-04-14T15:52:18.427Z,10.37
2019-04-14T15:54:48.477Z,8.90
2019-04-14T15:57:52.529Z,10.83
2019-04-14T16:00:36.199Z,7.70
2019-04-14T16:03:24.493Z,10.13
2019-04-14T16:06:13.201Z,14.10
2019-04-14T16:09:00.568Z,8.33
2019-04-14T16:11:49.452Z,9.93
2019-04-14T16:14:37.216Z,9.23
2019-04-14T16:17:23.702Z,11.43
2019-04-14T16:20:01.349Z,11.90
2019-04-14T16:22:31.573Z,7.20
2019-04-14T16:25:01.407Z,8.90
2019-04-14T16:27:40.478Z,10.33
2019-04-14T16:30:22.827Z,10.00
2019-04-14T16:33:10.321Z,9.33
2019-04-14T16:35:39.964Z,6.10
2019-04-14T16:38:09.676Z,6.43
2019-04-14T16:40:39.509Z,7.47
2019-04-14T16:43:10.143Z,7.10
2019-04-14T16:45:39.947Z,6.87
2019-04-14T16:48:10.963Z,10.97
2019-04-14T16:50:41.940Z,7.40
2019-04-14T16:53:19.092Z,8.00
2019-04-14T16:56:10.841Z,8.87
2019-04-14T16:58:43.625Z,7.70
2019-04-14T17:01:19.641Z,6.30
2019-04-14T17:03:49.416Z,7.80
2019-04-14T17:06:19.400Z,6.93
2019-04-14T17:08:49.174Z,5.43
2019-04-14T17:11:18.917Z,5.53
2019-04-14T17:14:03.267Z,7.67
2019-04-14T17:17:01.078Z,9.20
2019-04-14T17:19:38.417Z,8.07
2019-04-14T17:22:30.032Z,8.03
2019-04-14T17:25:27.326Z,6.17
2019-04-14T17:28:31.272Z,4.93
2019-04-14T17:31:20.236Z,12.03
2019-04-14T17:34:11.804Z,7.93
2019-04-14T17:36:47.236Z,9.70
2019-04-14T17:39:24.848Z,7.40
2019-04-14T17:42:01.113Z,7.13
2019-04-14T17:44:44.188Z,8.93
2019-04-14T17:47:32.130Z,7.97
2019-04-14T17:50:20.027Z,7.43
2019-04-14T17:53:15.132Z,11.83
2019-04-14T17:56:05.060Z,10.30
2019-04-14T17:58:56.048Z,10.83
2019-04-14T18:01:57.264Z,11.00
2019-04-14T18:04:42.165Z,9.00
2019-04-14T18:07:25.291Z,8.43
2019-04-14T18:10:12.290Z,8.90
2019-04-14T18:13:01.271Z,11.27
2019-04-14T18:15:52.547Z,9.80
2019-04-14T18:18:48.262Z,6.73
2019-04-14T18:21:19.045Z,9.80
2019-04-14T18:23:49.068Z,8.83
2019-04-14T18:26:22.933Z,7.00
2019-04-14T18:29:01.210Z,8.23
2019-04-14T18:31:55.627Z,7.90
2019-04-14T18:34:43.071Z,9.37
2019-04-14T18:37:31.843Z,10.50
2019-04-14T18:40:24.503Z,8.27
2019-04-14T18:43:02.489Z,13.50
2019-04-14T18:45:36.549Z,15.03
2019-04-14T18:48:25.456Z,8.37
2019-04-14T18:51:14.392Z,8.07
2019-04-14T18:53:52.247Z,7.87
2019-04-14T18:56:47.543Z,7.80
2019-04-14T18:59:27.569Z,6.73
2019-04-14T19:01:58.283Z,6.47
2019-04-14T19:04:28.453Z,10.07
2019-04-14T19:06:58.495Z,6.87
2019-04-14T19:09:28.509Z,8.67
2019-04-14T19:12:23.887Z,8.23
2019-04-14T19:15:02.994Z,7.00
2019-04-14T19:17:40.336Z,9.43
2019-04-14T19:20:11.536Z,7.43
2019-04-14T19:22:41.560Z,7.23
2019-04-14T19:25:12.241Z,8.17
2019-04-14T19:27:43.629Z,5.80
2019-04-14T19:30:14.217Z,7.40
2019-04-14T19:32:44.435Z,8.20
2019-04-14T19:35:16.444Z,8.80
2019-04-14T19:37:48.154Z,6.87
2019-04-14T19:40:18.699Z,4.93
2019-04-14T19:42:49.109Z,7.70
2019-04-14T19:45:19.773Z,5.93
2019-04-14T19:47:54.745Z,6.70
2019-04-14T19:50:25.047Z,5.37
2019-04-14T19:52:55.276Z,7.23
2019-04-14T19:55:26.775Z,5.87
2019-04-14T19:57:56.783Z,8.13
2019-04-14T20:00:27.791Z,5.50
2019-04-14T20:02:57.613Z,6.27
2019-04-14T20:05:28.135Z,6.83
2019-04-14T20:08:06.425Z,6.60
2019-04-14T20:10:36.853Z,6.57
2019-04-14T20:13:08.238Z,6.00
2019-04-14T20:15:54.229Z,7.47
2019-04-14T20:18:37.902Z,8.03
2019-04-14T20:21:18.640Z,7.10
2019-04-14T20:23:56.439Z,6.10
2019-04-14T20:26:50.738Z,5.63
2019-04-14T20:29:27.716Z,5.27
2019-04-14T20:32:09.019Z,7.50
2019-04-14T20:34:38.979Z,5.67
2019-04-14T20:37:08.964Z,6.20
2019-04-14T20:39:41.293Z,4.40
2019-04-14T20:42:11.029Z,6.67
2019-04-14T20:44:42.019Z,11.97
2019-04-14T20:47:15.386Z,5.07
2019-04-14T20:49:45.940Z,6.93
2019-04-14T20:52:16.425Z,4.83
2019-04-14T20:54:48.032Z,4.67
2019-04-14T20:57:17.955Z,4.90
2019-04-14T20:59:47.913Z,6.40
2019-04-14T21:02:35.645Z,5.17
2019-04-14T21:05:17.765Z,5.07
2019-04-14T21:08:00.425Z,5.87
2019-04-14T21:10:39.687Z,4.60
2019-04-14T21:13:34.444Z,3.60
2019-04-14T21:16:31.487Z,3.87
2019-04-14T21:19:10.885Z,4.20
2019-04-14T21:21:55.133Z,6.17
2019-04-14T21:24:43.117Z,5.87
2019-04-14T21:27:18.488Z,3.20
2019-04-14T21:30:06.289Z,4.07
2019-04-14T21:32:40.074Z,2.80
2019-04-14T21:35:24.558Z,4.77
2019-04-14T21:38:02.671Z,3.03
2019-04-14T21:40:54.105Z,2.77
2019-04-14T21:43:23.864Z,4.53
2019-04-14T21:45:53.910Z,5.10
2019-04-14T21:48:23.879Z,3.17
2019-04-14T21:50:53.463Z,2.97
2019-04-14T21:53:23.565Z,3.17
2019-04-14T21:55:53.909Z,5.30
2019-04-14T21:58:42.637Z,2.60
2019-04-14T22:01:55.494Z,3.00
2019-04-14T22:04:59.501Z,3.03
2019-04-14T22:07:42.732Z,3.10
2019-04-14T22:10:19.241Z,3.60
2019-04-14T22:12:49.280Z,2.80
2019-04-14T22:15:19.341Z,4.07
2019-04-14T22:17:49.334Z,5.90
2019-04-14T22:20:18.968Z,3.37
2019-04-14T22:22:48.545Z,3.23
2019-04-14T22:25:18.628Z,3.00
2019-04-14T22:27:48.333Z,2.90
2019-04-14T22:30:18.560Z,2.83
2019-04-14T22:32:48.571Z,3.33
2019-04-14T22:35:18.371Z,3.67
2019-04-14T22:37:47.956Z,3.00
2019-04-14T22:40:18.075Z,3.10
2019-04-14T22:42:47.896Z,2.90
2019-04-14T22:45:17.645Z,4.77
2019-04-14T22:47:47.613Z,3.23
2019-04-14T22:50:17.378Z,3.17
2019-04-14T22:52:47.265Z,2.43
2019-04-14T22:55:18.402Z,3.73
2019-04-14T22:57:48.096Z,3.00
2019-04-14T23:00:37.611Z,4.33
2019-04-14T23:03:21.790Z,2.53
2019-04-14T23:05:57.364Z,3.27
2019-04-14T23:08:40.963Z,4.50
2019-04-14T23:11:33.945Z,2.50
2019-04-14T23:14:23.936Z,4.30
2019-04-14T23:17:19.625Z,4.07
2019-04-14T23:20:04.206Z,3.90
2019-04-14T23:23:00.714Z,5.00
2019-04-14T23:25:30.725Z,3.00
2019-04-14T23:28:00.960Z,4.57
2019-04-14T23:30:31.261Z,6.20
2019-04-14T23:33:01.393Z,3.50
2019-04-14T23:35:31.998Z,6.50
2019-04-14T23:38:01.812Z,3.90
2019-04-14T23:40:31.997Z,3.60
2019-04-14T23:43:02.478Z,4.20
2019-04-14T23:45:32.544Z,3.20
2019-04-14T23:48:02.836Z,3.43
2019-04-14T23:50:32.858Z,3.20
2019-04-14T23:53:02.857Z,5.07
2019-04-14T23:55:32.591Z,2.70
2019-04-14T23:58:02.878Z,2.80
